sensor_id;sensor_type;location;lat;lon;timestamp;P1;durP1;ratioP1;P2;durP2;ratioP2
3267;SDS011;1646;52.450;13.326;2023-06-14T00:03:51;3.67;;;2.40;;
3267;SDS011;1646;52.450;13.326;2023-06-14T00:08:50;3.57;;;2.70;;
3267;SDS011;1646;52.450;13.326;2023-06-14T00:13:49;11.30;;;3.03;;
3267;SDS011;1646;52.450;13.326;2023-06-14T00:18:47;3.50;;;2.23;;
3267;SDS011;1646;52.450;13.326;2023-06-14T00:23:47;3.10;;;2.60;;
3267;SDS011;1646;52.450;13.326;2023-06-14T00:28:45;3.30;;;2.60;;
3267;SDS011;1646;52.450;13.326;2023-06-14T00:33:44;4.47;;;2.90;;
3267;SDS011;1646;52.450;13.326;2023-06-14T00:38:42;5.23;;;2.63;;
3267;SDS011;1646;52.450;13.326;2023-06-14T00:43:42;7.27;;;2.80;;
3267;SDS011;1646;52.450;13.326;2023-06-14T00:48:40;4.73;;;3.27;;
3267;SDS011;1646;52.450;13.326;2023-06-14T00:53:39;3.93;;;3.00;;
3267;SDS011;1646;52.450;13.326;2023-06-14T00:58:43;3.70;;;3.20;;
3267;SDS011;1646;52.450;13.326;2023-06-14T01:03:42;3.00;;;2.80;;
3267;SDS011;1646;52.450;13.326;2023-06-14T01:08:44;4.57;;;3.53;;
3267;SDS011;1646;52.450;13.326;2023-06-14T01:13:50;6.40;;;3.90;;
3267;SDS011;1646;52.450;13.326;2023-06-14T01:18:52;10.07;;;3.70;;
3267;SDS011;1646;52.450;13.326;2023-06-14T01:23:54;4.70;;;3.77;;
3267;SDS011;1646;52.450;13.326;2023-06-14T01:28:56;10.73;;;4.60;;
3267;SDS011;1646;52.450;13.326;2023-06-14T01:33:55;8.00;;;4.00;;
3267;SDS011;1646;52.450;13.326;2023-06-14T01:38:54;6.57;;;4.53;;
3267;SDS011;1646;52.450;13.326;2023-06-14T01:43:55;4.23;;;3.67;;
3267;SDS011;1646;52.450;13.326;2023-06-14T01:48:54;7.47;;;4.30;;
3267;SDS011;1646;52.450;13.326;2023-06-14T01:53:52;4.10;;;3.67;;
3267;SDS011;1646;52.450;13.326;2023-06-14T01:58:53;4.70;;;3.97;;
3267;SDS011;1646;52.450;13.326;2023-06-14T02:03:52;5.80;;;4.20;;
3267;SDS011;1646;52.450;13.326;2023-06-14T02:08:50;12.67;;;5.00;;
3267;SDS011;1646;52.450;13.326;2023-06-14T02:13:50;6.27;;;3.87;;
3267;SDS011;1646;52.450;13.326;2023-06-14T02:18:48;5.53;;;4.90;;
3267;SDS011;1646;52.450;13.326;2023-06-14T02:23:47;5.77;;;4.53;;
3267;SDS011;1646;52.450;13.326;2023-06-14T02:28:46;6.77;;;4.40;;
3267;SDS011;1646;52.450;13.326;2023-06-14T02:33:45;5.47;;;4.20;;
3267;SDS011;1646;52.450;13.326;2023-06-14T02:38:44;6.23;;;4.27;;
3267;SDS011;1646;52.450;13.326;2023-06-14T02:43:43;5.70;;;3.90;;
3267;SDS011;1646;52.450;13.326;2023-06-14T02:48:41;6.23;;;5.07;;
3267;SDS011;1646;52.450;13.326;2023-06-14T02:53:41;8.27;;;4.57;;
3267;SDS011;1646;52.450;13.326;2023-06-14T02:58:40;7.20;;;4.40;;
3267;SDS011;1646;52.450;13.326;2023-06-14T03:03:38;5.53;;;4.90;;
3267;SDS011;1646;52.450;13.326;2023-06-14T03:08:37;5.97;;;5.03;;
3267;SDS011;1646;52.450;13.326;2023-06-14T03:13:43;5.90;;;4.60;;
3267;SDS011;1646;52.450;13.326;2023-06-14T03:18:42;7.10;;;4.90;;
3267;SDS011;1646;52.450;13.326;2023-06-14T03:23:40;8.30;;;5.10;;
3267;SDS011;1646;52.450;13.326;2023-06-14T03:28:40;7.30;;;5.30;;
3267;SDS011;1646;52.450;13.326;2023-06-14T03:33:40;7.83;;;4.93;;
3267;SDS011;1646;52.450;13.326;2023-06-14T03:38:39;7.13;;;4.80;;
3267;SDS011;1646;52.450;13.326;2023-06-14T03:43:39;6.70;;;5.43;;
3267;SDS011;1646;52.450;13.326;2023-06-14T03:48:37;7.10;;;5.30;;
3267;SDS011;1646;52.450;13.326;2023-06-14T03:53:38;6.30;;;4.93;;
3267;SDS011;1646;52.450;13.326;2023-06-14T03:58:57;7.33;;;4.70;;
3267;SDS011;1646;52.450;13.326;2023-06-14T04:03:58;14.73;;;6.47;;
3267;SDS011;1646;52.450;13.326;2023-06-14T04:08:58;11.13;;;6.07;;
3267;SDS011;1646;52.450;13.326;2023-06-14T04:14:01;8.87;;;5.63;;
3267;SDS011;1646;52.450;13.326;2023-06-14T04:19:00;7.00;;;5.40;;
3267;SDS011;1646;52.450;13.326;2023-06-14T04:24:00;7.40;;;6.00;;
3267;SDS011;1646;52.450;13.326;2023-06-14T04:29:01;8.73;;;5.97;;
3267;SDS011;1646;52.450;13.326;2023-06-14T04:34:06;7.43;;;5.63;;
3267;SDS011;1646;52.450;13.326;2023-06-14T04:39:07;9.90;;;6.73;;
3267;SDS011;1646;52.450;13.326;2023-06-14T04:44:05;11.13;;;7.10;;
3267;SDS011;1646;52.450;13.326;2023-06-14T04:49:09;9.70;;;6.10;;
3267;SDS011;1646;52.450;13.326;2023-06-14T04:54:13;7.30;;;5.43;;
3267;SDS011;1646;52.450;13.326;2023-06-14T04:59:12;12.90;;;6.87;;
3267;SDS011;1646;52.450;13.326;2023-06-14T05:04:11;8.00;;;6.20;;
3267;SDS011;1646;52.450;13.326;2023-06-14T05:09:10;8.10;;;6.40;;
3267;SDS011;1646;52.450;13.326;2023-06-14T05:14:10;6.63;;;5.33;;
3267;SDS011;1646;52.450;13.326;2023-06-14T05:19:08;10.87;;;5.57;;
3267;SDS011;1646;52.450;13.326;2023-06-14T05:24:07;7.13;;;5.80;;
3267;SDS011;1646;52.450;13.326;2023-06-14T05:29:06;10.97;;;6.27;;
3267;SDS011;1646;52.450;13.326;2023-06-14T05:34:05;8.27;;;5.67;;
3267;SDS011;1646;52.450;13.326;2023-06-14T05:39:04;5.87;;;5.27;;
3267;SDS011;1646;52.450;13.326;2023-06-14T05:44:03;8.23;;;5.23;;
3267;SDS011;1646;52.450;13.326;2023-06-14T05:49:01;9.33;;;5.40;;
3267;SDS011;1646;52.450;13.326;2023-06-14T05:54:00;7.57;;;5.70;;
3267;SDS011;1646;52.450;13.326;2023-06-14T05:58:59;9.70;;;6.20;;
3267;SDS011;1646;52.450;13.326;2023-06-14T06:04:15;6.20;;;5.60;;
3267;SDS011;1646;52.450;13.326;2023-06-14T06:09:15;8.13;;;5.77;;
3267;SDS011;1646;52.450;13.326;2023-06-14T06:14:13;12.77;;;5.37;;
3267;SDS011;1646;52.450;13.326;2023-06-14T06:19:12;7.23;;;5.13;;
3267;SDS011;1646;52.450;13.326;2023-06-14T06:24:10;13.10;;;5.90;;
3267;SDS011;1646;52.450;13.326;2023-06-14T06:29:10;9.67;;;6.10;;
3267;SDS011;1646;52.450;13.326;2023-06-14T06:34:08;10.73;;;6.07;;
3267;SDS011;1646;52.450;13.326;2023-06-14T06:39:07;12.53;;;6.07;;
3267;SDS011;1646;52.450;13.326;2023-06-14T06:44:07;10.93;;;5.90;;
3267;SDS011;1646;52.450;13.326;2023-06-14T06:49:09;14.30;;;6.67;;
3267;SDS011;1646;52.450;13.326;2023-06-14T06:54:08;9.77;;;6.87;;
3267;SDS011;1646;52.450;13.326;2023-06-14T06:59:07;7.43;;;5.60;;
3267;SDS011;1646;52.450;13.326;2023-06-14T07:04:05;6.40;;;5.60;;
3267;SDS011;1646;52.450;13.326;2023-06-14T07:09:05;9.17;;;5.40;;
3267;SDS011;1646;52.450;13.326;2023-06-14T07:14:08;9.03;;;5.80;;
3267;SDS011;1646;52.450;13.326;2023-06-14T07:19:07;10.53;;;5.23;;
3267;SDS011;1646;52.450;13.326;2023-06-14T07:24:07;6.77;;;5.57;;
3267;SDS011;1646;52.450;13.326;2023-06-14T07:29:05;12.17;;;5.80;;
3267;SDS011;1646;52.450;13.326;2023-06-14T07:34:03;7.93;;;5.40;;
3267;SDS011;1646;52.450;13.326;2023-06-14T07:39:02;7.30;;;6.03;;
3267;SDS011;1646;52.450;13.326;2023-06-14T07:44:03;12.07;;;6.07;;
3267;SDS011;1646;52.450;13.326;2023-06-14T07:49:01;9.47;;;5.57;;
3267;SDS011;1646;52.450;13.326;2023-06-14T07:54:00;5.83;;;5.17;;
3267;SDS011;1646;52.450;13.326;2023-06-14T07:58:58;8.43;;;5.50;;
3267;SDS011;1646;52.450;13.326;2023-06-14T08:03:58;8.67;;;4.90;;
3267;SDS011;1646;52.450;13.326;2023-06-14T08:08:56;6.30;;;4.20;;
3267;SDS011;1646;52.450;13.326;2023-06-14T08:13:55;18.30;;;4.77;;
3267;SDS011;1646;52.450;13.326;2023-06-14T08:18:53;9.83;;;5.10;;
3267;SDS011;1646;52.450;13.326;2023-06-14T08:23:53;4.43;;;3.80;;
3267;SDS011;1646;52.450;13.326;2023-06-14T08:28:52;6.00;;;4.30;;
3267;SDS011;1646;52.450;13.326;2023-06-14T08:33:51;11.60;;;4.20;;
3267;SDS011;1646;52.450;13.326;2023-06-14T08:38:49;12.53;;;4.43;;
3267;SDS011;1646;52.450;13.326;2023-06-14T08:43:49;28.90;;;6.10;;
3267;SDS011;1646;52.450;13.326;2023-06-14T08:48:48;8.87;;;4.60;;
3267;SDS011;1646;52.450;13.326;2023-06-14T08:53:49;7.67;;;4.43;;
3267;SDS011;1646;52.450;13.326;2023-06-14T08:58:52;12.23;;;3.87;;
3267;SDS011;1646;52.450;13.326;2023-06-14T09:03:50;15.07;;;4.57;;
3267;SDS011;1646;52.450;13.326;2023-06-14T09:08:51;7.57;;;3.43;;
3267;SDS011;1646;52.450;13.326;2023-06-14T09:13:51;9.20;;;4.10;;
3267;SDS011;1646;52.450;13.326;2023-06-14T09:18:49;4.87;;;3.20;;
3267;SDS011;1646;52.450;13.326;2023-06-14T09:23:48;6.00;;;3.73;;
3267;SDS011;1646;52.450;13.326;2023-06-14T09:28:46;8.53;;;3.73;;
3267;SDS011;1646;52.450;13.326;2023-06-14T09:33:48;11.37;;;4.90;;
3267;SDS011;1646;52.450;13.326;2023-06-14T09:38:51;7.03;;;3.80;;
3267;SDS011;1646;52.450;13.326;2023-06-14T09:43:50;11.70;;;4.13;;
3267;SDS011;1646;52.450;13.326;2023-06-14T09:48:49;7.83;;;3.60;;
3267;SDS011;1646;52.450;13.326;2023-06-14T09:53:48;7.27;;;3.40;;
3267;SDS011;1646;52.450;13.326;2023-06-14T09:58:47;6.87;;;3.57;;
3267;SDS011;1646;52.450;13.326;2023-06-14T10:04:04;8.50;;;3.20;;
3267;SDS011;1646;52.450;13.326;2023-06-14T10:09:07;10.10;;;3.63;;
3267;SDS011;1646;52.450;13.326;2023-06-14T10:14:07;9.03;;;3.83;;
3267;SDS011;1646;52.450;13.326;2023-06-14T10:19:17;5.90;;;3.30;;
3267;SDS011;1646;52.450;13.326;2023-06-14T10:24:18;4.07;;;3.50;;
3267;SDS011;1646;52.450;13.326;2023-06-14T10:29:22;6.80;;;4.03;;
3267;SDS011;1646;52.450;13.326;2023-06-14T10:34:22;9.77;;;4.00;;
3267;SDS011;1646;52.450;13.326;2023-06-14T10:39:22;7.23;;;3.50;;
3267;SDS011;1646;52.450;13.326;2023-06-14T10:49:51;11.03;;;3.50;;
3267;SDS011;1646;52.450;13.326;2023-06-14T10:54:55;11.83;;;4.47;;
3267;SDS011;1646;52.450;13.326;2023-06-14T10:59:56;6.70;;;4.30;;
3267;SDS011;1646;52.450;13.326;2023-06-14T11:04:57;15.73;;;4.53;;
3267;SDS011;1646;52.450;13.326;2023-06-14T11:10:10;12.80;;;4.30;;
3267;SDS011;1646;52.450;13.326;2023-06-14T11:15:16;7.63;;;3.60;;
3267;SDS011;1646;52.450;13.326;2023-06-14T11:20:16;4.73;;;3.57;;
3267;SDS011;1646;52.450;13.326;2023-06-14T11:25:19;4.80;;;3.20;;
3267;SDS011;1646;52.450;13.326;2023-06-14T11:30:18;5.43;;;3.57;;
3267;SDS011;1646;52.450;13.326;2023-06-14T11:35:18;8.37;;;3.60;;
3267;SDS011;1646;52.450;13.326;2023-06-14T11:40:16;8.50;;;3.57;;
3267;SDS011;1646;52.450;13.326;2023-06-14T11:45:15;7.47;;;3.83;;
3267;SDS011;1646;52.450;13.326;2023-06-14T11:50:13;8.93;;;3.90;;
3267;SDS011;1646;52.450;13.326;2023-06-14T11:55:13;6.33;;;3.40;;
3267;SDS011;1646;52.450;13.326;2023-06-14T12:00:12;7.03;;;3.43;;
3267;SDS011;1646;52.450;13.326;2023-06-14T12:05:12;6.90;;;3.10;;
3267;SDS011;1646;52.450;13.326;2023-06-14T12:10:10;4.83;;;3.03;;
3267;SDS011;1646;52.450;13.326;2023-06-14T12:15:11;8.70;;;4.03;;
3267;SDS011;1646;52.450;13.326;2023-06-14T12:20:11;9.27;;;3.33;;
3267;SDS011;1646;52.450;13.326;2023-06-14T12:25:18;6.57;;;3.97;;
3267;SDS011;1646;52.450;13.326;2023-06-14T12:30:24;9.63;;;3.67;;
3267;SDS011;1646;52.450;13.326;2023-06-14T12:35:22;5.97;;;3.27;;
3267;SDS011;1646;52.450;13.326;2023-06-14T12:40:22;10.10;;;3.60;;
3267;SDS011;1646;52.450;13.326;2023-06-14T12:45:21;14.13;;;3.77;;
3267;SDS011;1646;52.450;13.326;2023-06-14T12:50:19;8.57;;;3.80;;
3267;SDS011;1646;52.450;13.326;2023-06-14T12:55:23;7.30;;;3.83;;
3267;SDS011;1646;52.450;13.326;2023-06-14T13:00:21;14.33;;;4.10;;
3267;SDS011;1646;52.450;13.326;2023-06-14T13:05:20;11.93;;;3.70;;
3267;SDS011;1646;52.450;13.326;2023-06-14T13:10:18;5.60;;;3.50;;
3267;SDS011;1646;52.450;13.326;2023-06-14T13:15:18;8.10;;;3.73;;
3267;SDS011;1646;52.450;13.326;2023-06-14T13:20:16;4.70;;;3.47;;
3267;SDS011;1646;52.450;13.326;2023-06-14T13:25:16;5.90;;;3.53;;
3267;SDS011;1646;52.450;13.326;2023-06-14T13:30:15;6.57;;;2.97;;
3267;SDS011;1646;52.450;13.326;2023-06-14T13:35:15;9.10;;;3.40;;
3267;SDS011;1646;52.450;13.326;2023-06-14T13:40:14;9.97;;;3.20;;
3267;SDS011;1646;52.450;13.326;2023-06-14T13:45:12;21.60;;;3.43;;
3267;SDS011;1646;52.450;13.326;2023-06-14T13:50:11;3.80;;;3.40;;
3267;SDS011;1646;52.450;13.326;2023-06-14T13:55:11;6.17;;;3.50;;
3267;SDS011;1646;52.450;13.326;2023-06-14T14:00:10;4.57;;;3.50;;
3267;SDS011;1646;52.450;13.326;2023-06-14T14:05:11;4.93;;;3.50;;
3267;SDS011;1646;52.450;13.326;2023-06-14T14:10:11;7.80;;;2.83;;
3267;SDS011;1646;52.450;13.326;2023-06-14T14:15:10;9.83;;;3.33;;
3267;SDS011;1646;52.450;13.326;2023-06-14T14:20:10;6.23;;;3.20;;
3267;SDS011;1646;52.450;13.326;2023-06-14T14:25:11;5.20;;;2.87;;
3267;SDS011;1646;52.450;13.326;2023-06-14T14:30:10;5.30;;;3.10;;
3267;SDS011;1646;52.450;13.326;2023-06-14T14:35:10;3.90;;;3.23;;
3267;SDS011;1646;52.450;13.326;2023-06-14T14:40:10;3.80;;;3.03;;
3267;SDS011;1646;52.450;13.326;2023-06-14T14:45:10;7.63;;;3.13;;
3267;SDS011;1646;52.450;13.326;2023-06-14T14:50:08;6.10;;;3.53;;
3267;SDS011;1646;52.450;13.326;2023-06-14T14:55:07;9.83;;;3.23;;
3267;SDS011;1646;52.450;13.326;2023-06-14T15:00:08;8.33;;;2.97;;
3267;SDS011;1646;52.450;13.326;2023-06-14T15:05:07;5.63;;;3.43;;
3267;SDS011;1646;52.450;13.326;2023-06-14T15:10:06;4.00;;;3.10;;
3267;SDS011;1646;52.450;13.326;2023-06-14T15:15:05;9.90;;;3.40;;
3267;SDS011;1646;52.450;13.326;2023-06-14T15:20:06;9.93;;;2.80;;
3267;SDS011;1646;52.450;13.326;2023-06-14T15:25:06;7.27;;;3.33;;
3267;SDS011;1646;52.450;13.326;2023-06-14T15:30:05;12.00;;;3.43;;
3267;SDS011;1646;52.450;13.326;2023-06-14T15:35:06;4.90;;;3.40;;
3267;SDS011;1646;52.450;13.326;2023-06-14T15:40:05;8.87;;;3.50;;
3267;SDS011;1646;52.450;13.326;2023-06-14T15:45:04;9.77;;;3.50;;
3267;SDS011;1646;52.450;13.326;2023-06-14T15:50:03;5.57;;;3.90;;
3267;SDS011;1646;52.450;13.326;2023-06-14T15:55:04;6.70;;;3.10;;
3267;SDS011;1646;52.450;13.326;2023-06-14T16:00:04;6.57;;;3.40;;
3267;SDS011;1646;52.450;13.326;2023-06-14T16:05:03;6.73;;;3.57;;
3267;SDS011;1646;52.450;13.326;2023-06-14T16:10:03;7.07;;;3.37;;
3267;SDS011;1646;52.450;13.326;2023-06-14T16:15:02;8.73;;;3.17;;
3267;SDS011;1646;52.450;13.326;2023-06-14T16:20:01;11.10;;;3.60;;
3267;SDS011;1646;52.450;13.326;2023-06-14T16:24:59;4.80;;;3.10;;
3267;SDS011;1646;52.450;13.326;2023-06-14T16:29:59;3.67;;;3.27;;
3267;SDS011;1646;52.450;13.326;2023-06-14T16:34:57;6.20;;;3.20;;
3267;SDS011;1646;52.450;13.326;2023-06-14T16:39:55;6.20;;;3.47;;
3267;SDS011;1646;52.450;13.326;2023-06-14T16:44:54;5.00;;;3.40;;
3267;SDS011;1646;52.450;13.326;2023-06-14T16:49:53;5.10;;;3.87;;
3267;SDS011;1646;52.450;13.326;2023-06-14T16:54:52;11.53;;;3.97;;
3267;SDS011;1646;52.450;13.326;2023-06-14T16:59:50;3.80;;;3.20;;
3267;SDS011;1646;52.450;13.326;2023-06-14T17:04:48;4.07;;;3.33;;
3267;SDS011;1646;52.450;13.326;2023-06-14T17:09:48;11.93;;;3.23;;
3267;SDS011;1646;52.450;13.326;2023-06-14T17:14:46;5.63;;;2.97;;
3267;SDS011;1646;52.450;13.326;2023-06-14T17:19:56;9.67;;;3.47;;
3267;SDS011;1646;52.450;13.326;2023-06-14T17:24:54;8.13;;;3.50;;
3267;SDS011;1646;52.450;13.326;2023-06-14T17:29:52;5.73;;;3.60;;
3267;SDS011;1646;52.450;13.326;2023-06-14T17:34:50;4.23;;;3.17;;
3267;SDS011;1646;52.450;13.326;2023-06-14T17:39:50;5.67;;;3.00;;
3267;SDS011;1646;52.450;13.326;2023-06-14T17:44:48;8.27;;;3.40;;
3267;SDS011;1646;52.450;13.326;2023-06-14T17:49:47;8.33;;;3.60;;
3267;SDS011;1646;52.450;13.326;2023-06-14T17:54:47;5.40;;;3.80;;
3267;SDS011;1646;52.450;13.326;2023-06-14T17:59:47;4.33;;;3.73;;
3267;SDS011;1646;52.450;13.326;2023-06-14T18:04:45;6.83;;;3.23;;
3267;SDS011;1646;52.450;13.326;2023-06-14T18:09:44;7.70;;;3.70;;
3267;SDS011;1646;52.450;13.326;2023-06-14T18:14:42;8.27;;;3.60;;
3267;SDS011;1646;52.450;13.326;2023-06-14T18:19:42;6.97;;;3.70;;
3267;SDS011;1646;52.450;13.326;2023-06-14T18:24:40;7.03;;;4.27;;
3267;SDS011;1646;52.450;13.326;2023-06-14T18:29:39;7.70;;;3.50;;
3267;SDS011;1646;52.450;13.326;2023-06-14T18:34:37;7.93;;;3.53;;
3267;SDS011;1646;52.450;13.326;2023-06-14T18:39:37;6.97;;;4.30;;
3267;SDS011;1646;52.450;13.326;2023-06-14T18:44:35;8.37;;;4.13;;
3267;SDS011;1646;52.450;13.326;2023-06-14T18:49:33;10.37;;;4.07;;
3267;SDS011;1646;52.450;13.326;2023-06-14T18:54:32;5.70;;;4.07;;
3267;SDS011;1646;52.450;13.326;2023-06-14T18:59:31;12.53;;;3.37;;
3267;SDS011;1646;52.450;13.326;2023-06-14T19:04:30;8.77;;;3.67;;
3267;SDS011;1646;52.450;13.326;2023-06-14T19:09:28;9.10;;;3.83;;
3267;SDS011;1646;52.450;13.326;2023-06-14T19:14:26;3.80;;;3.10;;
3267;SDS011;1646;52.450;13.326;2023-06-14T19:19:26;9.53;;;3.30;;
3267;SDS011;1646;52.450;13.326;2023-06-14T19:24:24;6.57;;;3.23;;
3267;SDS011;1646;52.450;13.326;2023-06-14T19:29:23;10.33;;;3.40;;
3267;SDS011;1646;52.450;13.326;2023-06-14T19:34:22;14.67;;;3.80;;
3267;SDS011;1646;52.450;13.326;2023-06-14T19:39:21;8.60;;;3.23;;
3267;SDS011;1646;52.450;13.326;2023-06-14T19:44:20;7.10;;;3.10;;
3267;SDS011;1646;52.450;13.326;2023-06-14T19:49:18;5.13;;;3.70;;
3267;SDS011;1646;52.450;13.326;2023-06-14T19:54:16;10.90;;;3.23;;
3267;SDS011;1646;52.450;13.326;2023-06-14T19:59:16;6.57;;;3.20;;
3267;SDS011;1646;52.450;13.326;2023-06-14T20:04:14;7.33;;;3.00;;
3267;SDS011;1646;52.450;13.326;2023-06-14T20:09:13;6.20;;;3.27;;
3267;SDS011;1646;52.450;13.326;2023-06-14T20:14:13;9.43;;;3.50;;
3267;SDS011;1646;52.450;13.326;2023-06-14T20:19:13;5.13;;;3.43;;
3267;SDS011;1646;52.450;13.326;2023-06-14T20:24:11;8.90;;;4.20;;
3267;SDS011;1646;52.450;13.326;2023-06-14T20:29:09;6.50;;;2.93;;
3267;SDS011;1646;52.450;13.326;2023-06-14T20:34:09;5.90;;;3.43;;
3267;SDS011;1646;52.450;13.326;2023-06-14T20:39:07;5.67;;;3.37;;
3267;SDS011;1646;52.450;13.326;2023-06-14T20:44:05;7.90;;;3.53;;
3267;SDS011;1646;52.450;13.326;2023-06-14T20:49:05;9.53;;;3.90;;
3267;SDS011;1646;52.450;13.326;2023-06-14T20:54:05;4.10;;;3.23;;
3267;SDS011;1646;52.450;13.326;2023-06-14T20:59:03;7.03;;;3.40;;
3267;SDS011;1646;52.450;13.326;2023-06-14T21:04:02;7.13;;;3.83;;
3267;SDS011;1646;52.450;13.326;2023-06-14T21:09:00;5.97;;;3.40;;
3267;SDS011;1646;52.450;13.326;2023-06-14T21:14:00;9.67;;;3.57;;
3267;SDS011;1646;52.450;13.326;2023-06-14T21:18:58;7.50;;;3.37;;
3267;SDS011;1646;52.450;13.326;2023-06-14T21:23:57;7.67;;;3.10;;
3267;SDS011;1646;52.450;13.326;2023-06-14T21:28:55;10.00;;;3.00;;
3267;SDS011;1646;52.450;13.326;2023-06-14T21:33:55;15.90;;;3.50;;
3267;SDS011;1646;52.450;13.326;2023-06-14T21:38:53;10.37;;;3.90;;
3267;SDS011;1646;52.450;13.326;2023-06-14T21:43:52;7.43;;;3.87;;
3267;SDS011;1646;52.450;13.326;2023-06-14T21:48:51;5.47;;;3.70;;
3267;SDS011;1646;52.450;13.326;2023-06-14T21:53:51;5.97;;;2.70;;
3267;SDS011;1646;52.450;13.326;2023-06-14T21:58:49;7.20;;;3.60;;
3267;SDS011;1646;52.450;13.326;2023-06-14T22:03:47;7.77;;;3.57;;
3267;SDS011;1646;52.450;13.326;2023-06-14T22:08:45;7.30;;;3.80;;
3267;SDS011;1646;52.450;13.326;2023-06-14T22:13:45;9.70;;;3.10;;
3267;SDS011;1646;52.450;13.326;2023-06-14T22:18:43;6.90;;;3.87;;
3267;SDS011;1646;52.450;13.326;2023-06-14T22:23:42;6.63;;;3.60;;
3267;SDS011;1646;52.450;13.326;2023-06-14T22:28:40;5.97;;;4.00;;
3267;SDS011;1646;52.450;13.326;2023-06-14T22:33:41;8.60;;;3.50;;
3267;SDS011;1646;52.450;13.326;2023-06-14T22:38:39;6.23;;;3.40;;
3267;SDS011;1646;52.450;13.326;2023-06-14T22:43:38;7.30;;;3.33;;
3267;SDS011;1646;52.450;13.326;2023-06-14T22:48:38;8.00;;;3.83;;
3267;SDS011;1646;52.450;13.326;2023-06-14T22:53:42;8.33;;;3.83;;
3267;SDS011;1646;52.450;13.326;2023-06-14T22:58:41;10.07;;;3.80;;
3267;SDS011;1646;52.450;13.326;2023-06-14T23:03:41;3.80;;;3.27;;
3267;SDS011;1646;52.450;13.326;2023-06-14T23:08:40;5.80;;;3.57;;
3267;SDS011;1646;52.450;13.326;2023-06-14T23:13:40;7.80;;;3.40;;
3267;SDS011;1646;52.450;13.326;2023-06-14T23:18:41;12.00;;;4.63;;
3267;SDS011;1646;52.450;13.326;2023-06-14T23:23:40;4.10;;;3.20;;
3267;SDS011;1646;52.450;13.326;2023-06-14T23:28:43;5.90;;;3.57;;
3267;SDS011;1646;52.450;13.326;2023-06-14T23:33:44;5.80;;;4.03;;
3267;SDS011;1646;52.450;13.326;2023-06-14T23:38:42;4.90;;;3.43;;
3267;SDS011;1646;52.450;13.326;2023-06-14T23:43:45;6.80;;;3.70;;
3267;SDS011;1646;52.450;13.326;2023-06-14T23:48:47;5.20;;;3.77;;
3267;SDS011;1646;52.450;13.326;2023-06-14T23:53:45;5.40;;;3.60;;
3267;SDS011;1646;52.450;13.326;2023-06-14T23:58:44;4.83;;;3.80;;
